Time;durP1;ratioP1;P1;durP2;ratioP2;P2;SDS_P1;SDS_P2;PMS_P1;PMS_P2;Temp;Humidity;BMP_temperature;BMP_pressure;BME280_temperature;BME280_humidity;BME280_pressure;Samples;Min_cycle;Max_cycle;Signal;HPM_P1;HPM_P2
2023/09/16 00:00:58;;;;;;;3.00;1.73;;;;;;;21.13;48.60;100143.66;7655715;32;38138;-81
2023/09/16 00:05:15;;;;;;;2.97;1.90;;;;;;;21.11;48.17;100151.47;7655811;32;37170;-80
2023/09/16 00:09:33;;;;;;;2.20;1.48;;;;;;;21.16;47.30;100148.50;7655829;32;38299;-80
2023/09/16 00:13:50;;;;;;;3.22;1.77;;;;;;;21.06;47.40;100148.87;7657055;32;39750;-81
2023/09/16 00:18:06;;;;;;;2.75;1.52;;;;;;;21.11;47.54;100165.31;7659438;32;37788;-81
2023/09/16 00:22:24;;;;;;;1.62;1.40;;;;;;;21.02;47.95;100170.91;7685271;32;36953;-81
2023/09/16 00:26:40;;;;;;;3.87;1.60;;;;;;;20.99;48.45;100172.41;7685847;32;39096;-81
2023/09/16 00:31:00;;;;;;;5.43;1.65;;;;;;;20.84;49.24;100164.66;7685740;32;40073;-81
2023/09/16 00:35:17;;;;;;;3.05;1.80;;;;;;;20.89;49.30;100160.88;7684695;32;38073;-80
2023/09/16 00:39:33;;;;;;;2.85;2.00;;;;;;;21.02;49.00;100173.69;7685570;32;37967;-80
2023/09/16 00:43:49;;;;;;;2.45;1.58;;;;;;;20.79;49.58;100181.44;7685670;32;39408;-81
2023/09/16 00:48:06;;;;;;;4.25;2.12;;;;;;;20.83;49.51;100168.53;7685765;32;40662;-81
2023/09/16 00:52:22;;;;;;;3.47;1.77;;;;;;;20.85;49.49;100171.00;7684344;32;37646;-81
2023/09/16 00:56:39;;;;;;;4.95;1.90;;;;;;;20.59;50.13;100167.16;7683886;32;36801;-81
2023/09/16 01:00:55;;;;;;;3.35;1.85;;;;;;;20.56;50.07;100170.56;7685251;32;39412;-81
2023/09/16 01:05:15;;;;;;;3.40;1.73;;;;;;;20.41;50.21;100168.31;7685382;32;39717;-81
2023/09/16 01:09:32;;;;;;;2.67;1.67;;;;;;;20.45;49.95;100172.06;7683423;32;37934;-81
2023/09/16 01:13:50;;;;;;;3.53;1.67;;;;;;;20.50;49.64;100165.53;7684227;32;37209;-81
2023/09/16 01:18:19;;;;;;;2.47;1.65;;;;;;;20.41;49.73;100162.78;7685112;32;39842;-81
2023/09/16 01:22:37;;;;;;;4.90;1.90;;;;;;;20.54;49.46;100166.50;7685308;32;40043;-81
2023/09/16 01:26:53;;;;;;;3.35;2.15;;;;;;;20.22;50.21;100171.44;7684643;32;38010;-81
2023/09/16 01:31:09;;;;;;;4.03;1.60;;;;;;;20.13;50.61;100177.00;7685120;32;37032;-81
2023/09/16 01:35:29;;;;;;;3.97;2.03;;;;;;;19.95;51.08;100175.38;7683932;32;39217;-81
2023/09/16 01:39:48;;;;;;;3.30;1.80;;;;;;;20.10;50.79;100177.62;7683878;32;39972;-79
2023/09/16 01:44:05;;;;;;;3.47;2.10;;;;;;;20.17;50.66;100183.50;7683752;32;38137;-80
2023/09/16 01:48:22;;;;;;;3.92;2.05;;;;;;;19.95;51.23;100178.12;7684583;32;37857;-81
2023/09/16 01:52:55;;;;;;;3.10;1.70;;;;;;;19.94;51.15;100182.84;7684875;32;40274;-81
2023/09/16 01:57:11;;;;;;;3.40;1.77;;;;;;;19.95;51.16;100184.47;7684694;32;40579;-80
2023/09/16 02:06:06;;;;;;;3.62;1.90;;;;;;;19.88;51.31;100193.25;7639369;27;20117;-81
2023/09/16 02:10:23;;;;;;;4.18;1.58;;;;;;;20.05;50.83;100188.88;7578938;33;39445;-80
2023/09/16 02:14:39;;;;;;;3.72;2.05;;;;;;;20.06;50.48;100184.97;7580146;33;40006;-80
2023/09/16 02:18:55;;;;;;;1.92;1.52;;;;;;;20.08;50.31;100193.75;7578705;33;38728;-81
2023/09/16 02:23:12;;;;;;;5.72;1.50;;;;;;;19.68;51.54;100200.22;7579953;33;37005;-81
2023/09/16 02:27:29;;;;;;;4.20;1.92;;;;;;;20.13;50.41;100196.37;7578763;33;39404;-81
2023/09/16 02:31:45;;;;;;;3.45;1.90;;;;;;;19.83;51.13;100207.28;7579775;33;40159;-81
2023/09/16 02:36:01;;;;;;;3.97;1.85;;;;;;;19.89;50.92;100197.66;7578623;33;38725;-81
2023/09/16 02:40:18;;;;;;;2.22;1.70;;;;;;;19.82;51.34;100197.34;7579638;33;36864;-81
2023/09/16 02:44:35;;;;;;;4.22;1.70;;;;;;;19.95;51.11;100189.19;7579267;33;40240;-81
2023/09/16 02:48:51;;;;;;;3.60;1.80;;;;;;;19.66;51.82;100193.37;7579472;33;39920;-82
2023/09/16 02:53:08;;;;;;;2.85;1.60;;;;;;;19.76;51.43;100192.28;7579381;33;37860;-81
2023/09/16 02:57:24;;;;;;;4.07;1.80;;;;;;;19.81;51.40;100181.84;7579655;33;37033;-78
2023/09/16 03:01:40;;;;;;;3.05;1.60;;;;;;;19.81;51.45;100176.31;7563662;33;39458;-81
2023/09/16 03:05:57;;;;;;;3.78;1.60;;;;;;;19.76;51.82;100181.22;7578989;33;40868;-81
2023/09/16 03:10:13;;;;;;;2.85;1.85;;;;;;;19.82;51.46;100179.94;7578937;33;38097;-80
2023/09/16 03:14:29;;;;;;;3.35;1.73;;;;;;;19.57;52.50;100184.25;7579126;33;37582;-81
2023/09/16 03:18:47;;;;;;;5.37;2.00;;;;;;;19.65;52.48;100170.44;7578295;32;39216;-80
2023/09/16 03:23:04;;;;;;;3.90;1.80;;;;;;;19.57;52.56;100178.72;7578770;33;40214;-80
2023/09/16 03:27:20;;;;;;;4.87;1.70;;;;;;;19.67;52.14;100178.41;7578463;33;38823;-81
2023/09/16 03:31:37;;;;;;;4.40;1.60;;;;;;;19.62;51.95;100189.63;7578586;33;37359;-80
2023/09/16 03:35:53;;;;;;;4.07;2.10;;;;;;;19.66;51.90;100193.37;7578463;33;39492;-81
2023/09/16 03:40:09;;;;;;;6.45;1.87;;;;;;;19.61;51.71;100191.59;7578301;33;39805;-81
2023/09/16 03:44:26;;;;;;;3.80;1.87;;;;;;;19.42;52.07;100193.81;7578239;33;38181;-80
2023/09/16 03:48:42;;;;;;;3.20;1.62;;;;;;;19.51;51.75;100198.22;7580199;33;37030;-80
2023/09/16 03:52:58;;;;;;;3.15;1.80;;;;;;;19.31;52.35;100194.09;7581445;33;40135;-80
2023/09/16 03:57:15;;;;;;;4.90;2.08;;;;;;;19.33;52.13;100191.00;7581672;33;39675;-80
2023/09/16 04:01:31;;;;;;;3.20;2.05;;;;;;;19.09;52.84;100195.03;7581535;33;38736;-81
2023/09/16 04:05:48;;;;;;;4.45;1.95;;;;;;;19.10;52.75;100187.53;7581449;33;37906;-80
2023/09/16 04:10:04;;;;;;;3.30;1.70;;;;;;;19.06;52.93;100181.84;7581455;33;40126;-81
2023/09/16 04:14:23;;;;;;;3.28;1.83;;;;;;;19.17;52.52;100184.31;7581430;33;40140;-81
2023/09/16 04:18:39;;;;;;;3.05;1.80;;;;;;;19.04;52.99;100186.03;7581176;33;37755;-80
2023/09/16 04:22:56;;;;;;;6.07;2.03;;;;;;;19.14;52.62;100183.00;7581401;33;36855;-81
2023/09/16 04:27:12;;;;;;;2.83;1.90;;;;;;;19.12;52.75;100185.25;7581379;33;39577;-80
2023/09/16 04:31:30;;;;;;;2.83;1.75;;;;;;;19.04;52.91;100188.81;7581043;33;40780;-82
2023/09/16 04:35:48;;;;;;;5.80;2.00;;;;;;;19.10;52.23;100193.88;7581118;33;38699;-81
2023/09/16 04:40:14;;;;;;;5.53;1.92;;;;;;;19.14;51.83;100194.03;7565836;33;37792;-81
2023/09/16 04:44:30;;;;;;;4.07;1.73;;;;;;;18.98;52.43;100201.94;7555540;33;40094;-80
2023/09/16 04:48:47;;;;;;;3.22;1.77;;;;;;;18.98;52.65;100195.63;7580777;33;40093;-81
2023/09/16 04:53:04;;;;;;;4.47;2.25;;;;;;;19.09;52.05;100200.56;7580853;33;37935;-81
2023/09/16 04:57:21;;;;;;;5.30;2.12;;;;;;;19.06;51.85;100203.94;7580976;33;37380;-81
2023/09/16 05:01:37;;;;;;;6.87;2.25;;;;;;;19.31;51.27;100196.06;7579645;33;39043;-80
2023/09/16 05:05:54;;;;;;;2.87;1.90;;;;;;;19.25;52.07;100197.34;7580722;33;39713;-81
2023/09/16 05:10:11;;;;;;;6.78;1.80;;;;;;;19.20;51.58;100203.03;7579822;33;37923;-81
2023/09/16 05:14:28;;;;;;;3.37;1.90;;;;;;;19.40;51.13;100202.41;7580470;33;36847;-80
2023/09/16 05:18:44;;;;;;;6.57;2.03;;;;;;;19.34;50.87;100203.72;7579528;32;40117;-80
2023/09/16 05:23:01;;;;;;;3.78;1.90;;;;;;;19.19;51.56;100201.38;7580587;33;39959;-77
2023/09/16 05:27:17;;;;;;;7.43;2.00;;;;;;;19.49;50.84;100203.28;7580514;33;37769;-78
2023/09/16 05:31:34;;;;;;;4.62;1.80;;;;;;;19.50;50.94;100207.66;7580252;33;38005;-68
2023/09/16 05:35:50;;;;;;;4.82;2.10;;;;;;;19.80;52.38;100207.06;7580630;33;39560;-67
2023/09/16 05:40:07;;;;;;;7.43;2.10;;;;;;;19.82;49.94;100207.59;7580367;33;40007;-80
2023/09/16 05:44:23;;;;;;;5.47;1.98;;;;;;;19.89;49.79;100202.38;7580439;33;37825;-81
2023/09/16 05:48:41;;;;;;;4.00;2.03;;;;;;;19.95;49.36;100206.59;7580448;33;36916;-81
2023/09/16 05:52:57;;;;;;;4.85;1.60;;;;;;;20.14;48.54;100206.28;7580400;33;39056;-80
2023/09/16 05:57:14;;;;;;;4.18;2.00;;;;;;;20.22;48.78;100205.47;7580219;33;39791;-81
2023/09/16 06:01:33;;;;;;;7.43;2.00;;;;;;;20.17;48.60;100197.34;7579328;33;38761;-81
2023/09/16 06:05:55;;;;;;;5.80;2.00;;;;;;;20.45;47.30;100197.81;7579099;33;37712;-80
2023/09/16 06:10:12;;;;;;;2.55;1.48;;;;;;;20.48;46.87;100201.84;7578730;33;39241;-79
2023/09/16 06:14:30;;;;;;;5.53;1.90;;;;;;;20.55;46.61;100199.41;7580070;33;40895;-80
2023/09/16 06:18:47;;;;;;;5.43;2.10;;;;;;;20.66;47.00;100202.66;7579719;33;38140;-80
2023/09/16 06:23:04;;;;;;;5.47;1.85;;;;;;;20.57;47.91;100199.87;7579952;33;37219;-81
2023/09/16 06:27:21;;;;;;;2.12;1.70;;;;;;;20.92;46.87;100201.75;7579948;33;40072;-81
2023/09/16 06:31:37;;;;;;;2.55;1.70;;;;;;;21.06;46.70;100202.38;7579842;33;40067;-82
2023/09/16 06:35:53;;;;;;;3.95;2.10;;;;;;;20.95;46.45;100199.13;7579720;33;37617;-80
2023/09/16 06:40:10;;;;;;;3.00;2.00;;;;;;;21.23;45.88;100195.12;7579665;33;36907;-80
2023/09/16 06:44:27;;;;;;;5.22;2.22;;;;;;;21.29;46.04;100194.59;7579566;33;40269;-80
2023/09/16 06:48:44;;;;;;;4.28;1.92;;;;;;;21.69;46.64;100185.91;7579480;33;40048;-81
2023/09/16 06:53:00;;;;;;;5.55;1.52;;;;;;;21.27;47.61;100196.91;7579155;33;38701;-79
2023/09/16 06:57:16;;;;;;;3.87;1.73;;;;;;;21.82;44.45;100185.97;7579243;33;37916;-81
2023/09/16 07:01:34;;;;;;;3.20;1.70;;;;;;;22.22;42.95;100188.28;7579002;33;39553;-80
2023/09/16 07:05:50;;;;;;;4.32;1.70;;;;;;;22.45;42.08;100181.19;7578912;33;40780;-81
2023/09/16 07:10:07;;;;;;;3.65;1.67;;;;;;;22.79;41.46;100179.19;7578957;33;38869;-81
2023/09/16 07:14:23;;;;;;;2.70;1.70;;;;;;;22.74;41.46;100184.97;7578930;33;36817;-81
2023/09/16 07:18:40;;;;;;;4.72;1.60;;;;;;;22.85;40.85;100191.72;7578818;33;40271;-80
2023/09/16 07:22:57;;;;;;;10.82;2.12;;;;;;;23.14;40.60;100184.34;7579933;33;40049;-81
2023/09/16 07:27:13;;;;;;;2.20;1.40;;;;;;;23.38;40.10;100179.94;7581838;33;37966;-80
2023/09/16 07:31:29;;;;;;;4.62;1.52;;;;;;;23.59;39.75;100188.16;7581884;33;36673;-82
2023/09/16 07:35:47;;;;;;;2.90;1.65;;;;;;;23.91;39.53;100183.59;7581988;33;39447;-82
2023/09/16 07:40:04;;;;;;;3.55;1.33;;;;;;;24.36;38.95;100185.25;7581744;33;39751;-81
2023/09/16 07:44:21;;;;;;;3.62;1.45;;;;;;;24.63;39.00;100180.06;7581688;33;38583;-82
2023/09/16 07:48:37;;;;;;;2.00;1.50;;;;;;;24.97;38.21;100180.50;7581848;33;37292;-83
2023/09/16 07:52:53;;;;;;;4.68;1.75;;;;;;;24.82;37.86;100178.53;7581661;33;40109;-83
2023/09/16 07:57:09;;;;;;;3.83;2.20;;;;;;;25.31;37.45;100183.75;7581537;33;39867;-83
2023/09/16 08:01:29;;;;;;;3.92;2.20;;;;;;;25.06;38.01;100180.31;7581389;33;37748;-83
2023/09/16 08:05:45;;;;;;;5.15;2.83;;;;;;;24.69;39.18;100178.59;7581350;33;37857;-80
2023/09/16 08:10:03;;;;;;;5.90;2.92;;;;;;;24.87;39.43;100172.69;7581587;33;39963;-80
2023/09/16 08:14:19;;;;;;;5.70;2.80;;;;;;;24.65;41.02;100171.34;7581472;33;39937;-81
2023/09/16 08:18:36;;;;;;;5.80;3.22;;;;;;;25.15;39.90;100163.41;7581372;33;37783;-80
2023/09/16 08:22:52;;;;;;;9.95;4.45;;;;;;;25.39;40.47;100165.19;7581200;33;37801;-80
2023/09/16 08:27:09;;;;;;;6.40;3.10;;;;;;;25.15;41.57;100158.66;7581264;33;39609;-80
2023/09/16 08:31:25;;;;;;;5.65;2.80;;;;;;;25.42;40.26;100165.31;7581179;33;40811;-81
2023/09/16 08:35:43;;;;;;;5.47;2.53;;;;;;;26.13;38.86;100165.25;7580239;33;38578;-81
2023/09/16 08:39:59;;;;;;;6.07;2.87;;;;;;;25.89;38.42;100166.31;7580977;33;37272;-81
2023/09/16 08:44:17;;;;;;;4.93;2.72;;;;;;;25.72;38.36;100166.75;7581030;33;39365;-81
2023/09/16 08:48:35;;;;;;;8.77;2.70;;;;;;;25.62;38.44;100171.72;7568091;33;39932;-82
2023/09/16 08:52:53;;;;;;;3.72;2.10;;;;;;;25.79;38.09;100161.31;7580811;33;38743;-79
2023/09/16 08:57:11;;;;;;;6.55;2.30;;;;;;;25.96;37.67;100162.91;7581034;33;36884;-82
2023/09/16 09:01:28;;;;;;;3.45;2.20;;;;;;;26.10;36.89;100165.97;7567812;33;40506;-81
2023/09/16 09:05:45;;;;;;;3.62;2.28;;;;;;;25.94;37.64;100171.66;7580733;33;41048;-81
2023/09/16 09:10:02;;;;;;;4.97;2.40;;;;;;;25.51;38.30;100172.66;7580712;33;38576;-81
2023/09/16 09:14:20;;;;;;;3.80;2.10;;;;;;;25.24;39.59;100176.00;7580720;33;38091;-83
2023/09/16 09:18:37;;;;;;;4.35;2.08;;;;;;;25.54;38.53;100177.50;7580675;33;40166;-82
2023/09/16 09:22:54;;;;;;;3.78;2.12;;;;;;;25.48;38.03;100166.63;7567431;33;39654;-82
2023/09/16 09:27:12;;;;;;;3.75;1.85;;;;;;;25.27;38.22;100168.94;7567186;33;38049;-83
2023/09/16 09:31:29;;;;;;;5.00;2.20;;;;;;;25.46;37.79;100166.19;7580589;33;37006;-81
2023/09/16 09:35:46;;;;;;;5.53;2.37;;;;;;;25.43;37.84;100164.12;7580565;33;39378;-82
2023/09/16 09:40:12;;;;;;;4.93;2.72;;;;;;;25.38;37.55;100164.41;7567093;33;40002;-84
2023/09/16 09:44:32;;;;;;;5.87;2.08;;;;;;;25.40;37.47;100169.63;7580012;33;38758;-83
2023/09/16 09:48:48;;;;;;;3.17;1.80;;;;;;;24.97;39.14;100160.19;7580461;33;37031;-80
2023/09/16 09:53:05;;;;;;;4.20;1.95;;;;;;;25.56;37.68;100164.81;7579965;33;40100;-83
2023/09/16 09:57:22;;;;;;;3.70;1.80;;;;;;;25.70;37.48;100158.75;7567035;33;40645;-83
2023/09/16 10:01:40;;;;;;;5.50;2.08;;;;;;;25.93;37.59;100150.44;7567039;33;37944;-84
2023/09/16 10:06:12;;;;;;;3.22;2.05;;;;;;;25.76;37.06;100157.25;7580254;33;37019;-83
2023/09/16 10:10:30;;;;;;;5.60;2.20;;;;;;;25.75;37.68;100160.41;7567607;33;39474;-84
2023/09/16 10:14:48;;;;;;;4.97;2.33;;;;;;;25.64;37.67;100160.19;7577758;33;39657;-85
2023/09/16 10:19:04;;;;;;;4.45;2.33;;;;;;;25.96;37.69;100151.72;7565852;33;38635;-83
2023/09/16 10:23:22;;;;;;;3.30;1.90;;;;;;;26.11;38.12;100148.03;7565678;33;37153;-84
2023/09/16 10:28:04;;;;;;;4.20;2.00;;;;;;;25.95;37.47;100152.91;7566865;33;40189;-84
2023/09/16 10:32:20;;;;;;;4.20;1.80;;;;;;;26.04;37.83;100150.69;7570138;33;40004;-82
2023/09/16 10:36:37;;;;;;;5.32;2.30;;;;;;;26.49;37.24;100142.75;7580119;33;38741;-83
2023/09/16 10:40:54;;;;;;;7.22;2.20;;;;;;;26.16;36.80;100147.72;7579740;33;37036;-83
2023/09/16 10:45:11;;;;;;;5.35;2.20;;;;;;;26.71;36.12;100138.38;7579694;33;39304;-83
2023/09/16 10:49:28;;;;;;;3.25;2.05;;;;;;;26.98;36.01;100136.44;7579518;33;40855;-82
2023/09/16 10:53:49;;;;;;;8.43;2.05;;;;;;;27.38;34.95;100134.28;7579521;33;38002;-83
2023/09/16 10:58:20;;;;;;;4.37;1.90;;;;;;;27.49;35.13;100138.84;7565659;33;37759;-84
2023/09/16 11:02:59;;;;;;;4.80;2.05;;;;;;;28.41;35.04;100126.38;7579111;33;40136;-84
2023/09/16 11:07:16;;;;;;;2.62;1.85;;;;;;;28.91;32.35;100126.03;7579277;33;40798;-84
2023/09/16 11:11:33;;;;;;;3.80;1.92;;;;;;;29.10;32.29;100108.13;7579012;33;38174;-83
2023/09/16 11:15:50;;;;;;;4.05;1.90;;;;;;;29.80;32.08;100110.97;7565830;33;36881;-83
2023/09/16 11:20:30;;;;;;;5.15;2.03;;;;;;;29.64;30.69;100113.28;7578763;33;40217;-83
2023/09/16 11:24:51;;;;;;;4.10;1.80;;;;;;;30.08;30.95;100101.84;7578696;33;40041;-84
2023/09/16 11:29:20;;;;;;;3.53;2.17;;;;;;;30.49;30.24;100090.31;7565955;33;37667;-83
2023/09/16 11:33:38;;;;;;;4.28;2.20;;;;;;;30.84;30.56;100085.06;7578596;33;37087;-84
2023/09/16 11:37:55;;;;;;;7.95;2.42;;;;;;;30.65;30.86;100087.09;7578516;33;40137;-84
2023/09/16 11:42:15;;;;;;;4.78;2.12;;;;;;;31.16;29.45;100084.25;7578193;33;40693;-83
2023/09/16 11:46:33;;;;;;;2.80;1.87;;;;;;;30.93;30.27;100079.03;7577300;33;39217;-83
2023/09/16 11:50:50;;;;;;;3.37;2.30;;;;;;;30.97;30.21;100077.84;7577607;33;37066;-81
2023/09/16 11:55:07;;;;;;;6.37;2.30;;;;;;;30.44;30.53;100070.19;7577911;33;39409;-83
2023/09/16 11:59:26;;;;;;;3.20;2.20;;;;;;;29.70;32.43;100063.94;7577606;33;39780;-82
2023/09/16 12:03:42;;;;;;;3.70;2.20;;;;;;;29.84;32.14;100066.03;7576607;33;37957;-78
2023/09/16 12:07:59;;;;;;;3.85;2.40;;;;;;;29.26;33.66;100062.16;7563882;33;37935;-81
2023/09/16 12:12:16;;;;;;;5.80;2.60;;;;;;;28.68;34.43;100067.34;7580267;33;40126;-81
2023/09/16 12:16:32;;;;;;;6.10;2.70;;;;;;;28.72;34.05;100059.75;7581168;33;40741;-81
2023/09/16 12:20:50;;;;;;;3.15;2.20;;;;;;;28.73;34.32;100058.56;7580604;33;38048;-81
2023/09/16 12:25:06;;;;;;;6.40;1.83;;;;;;;27.92;36.23;100057.37;7580575;33;37177;-81
2023/09/16 12:29:23;;;;;;;4.12;2.33;;;;;;;27.87;35.70;100054.88;7581004;33;39505;-87
2023/09/16 12:33:44;;;;;;;4.00;2.42;;;;;;;28.26;35.72;100057.34;7580814;33;41146;-79
2023/09/16 12:38:00;;;;;;;3.60;2.33;;;;;;;28.39;35.44;100047.44;7555373;33;36961;-81
2023/09/16 12:42:17;;;;;;;8.15;3.03;;;;;;;28.38;35.55;100047.84;7542094;33;37905;-82
2023/09/16 12:46:33;;;;;;;3.87;2.53;;;;;;;28.15;35.83;100042.41;7555301;33;39477;-82
2023/09/16 12:50:49;;;;;;;5.60;2.90;;;;;;;28.01;36.45;100043.87;7555310;33;39848;-81
2023/09/16 12:55:15;;;;;;;4.20;2.70;;;;;;;27.75;36.54;100043.94;7555205;33;37774;-80
2023/09/16 12:59:31;;;;;;;5.62;2.78;;;;;;;27.73;36.27;100042.34;7568070;33;37882;-81
2023/09/16 13:03:48;;;;;;;5.55;2.55;;;;;;;27.48;37.16;100046.84;7580502;33;40211;-81
2023/09/16 13:08:05;;;;;;;5.47;2.92;;;;;;;27.24;37.70;100048.09;7580740;33;40807;-81
2023/09/16 13:12:22;;;;;;;11.57;3.53;;;;;;;27.32;37.41;100045.03;7567524;33;37771;-81
2023/09/16 13:16:38;;;;;;;9.07;3.10;;;;;;;27.22;38.32;100044.88;7567566;33;37174;-81
2023/09/16 13:20:56;;;;;;;4.12;2.50;;;;;;;27.24;38.23;100031.31;7566868;33;39898;-81
2023/09/16 13:25:40;;;;;;;5.68;2.72;;;;;;;27.16;38.39;100036.81;7580620;33;40862;-81
2023/09/16 13:30:00;;;;;;;5.18;2.90;;;;;;;26.81;39.18;100048.28;7580135;33;38129;-81
2023/09/16 13:34:17;;;;;;;9.15;3.37;;;;;;;26.92;38.71;100037.25;7580473;33;38041;-81
2023/09/16 13:38:34;;;;;;;5.80;2.90;;;;;;;27.02;38.81;100041.38;7580563;33;40005;-81
2023/09/16 13:42:50;;;;;;;7.70;3.10;;;;;;;26.78;39.51;100049.03;7580385;33;40899;-81
2023/09/16 13:47:07;;;;;;;5.93;2.70;;;;;;;26.60;39.62;100055.09;7580240;33;38108;-81
2023/09/16 13:51:26;;;;;;;6.50;3.28;;;;;;;26.53;39.58;100051.41;7580435;33;36080;-81
2023/09/16 13:55:44;;;;;;;6.00;3.40;;;;;;;26.48;40.28;100058.09;7580289;33;39436;-81
2023/09/16 14:00:00;;;;;;;7.40;3.35;;;;;;;26.54;39.89;100053.00;7580296;33;40740;-81
2023/09/16 14:04:17;;;;;;;7.22;3.50;;;;;;;26.52;40.09;100042.19;7579453;33;38825;-81
2023/09/16 14:08:33;;;;;;;6.43;3.40;;;;;;;26.49;40.00;100037.37;7579747;33;37852;-81
2023/09/16 14:12:50;;;;;;;10.77;3.00;;;;;;;26.28;40.86;100036.97;7580028;33;39111;-81
2023/09/16 14:17:06;;;;;;;6.05;3.17;;;;;;;26.11;40.83;100032.69;7579912;33;40783;-82
2023/09/16 14:21:23;;;;;;;7.12;3.30;;;;;;;26.38;40.49;100031.56;7579986;33;38090;-81
2023/09/16 14:25:42;;;;;;;3.90;2.67;;;;;;;26.07;41.17;100038.22;7579639;33;37712;-81
2023/09/16 14:29:58;;;;;;;7.53;2.97;;;;;;;25.98;41.20;100034.88;7578868;33;39396;-85
2023/09/16 14:34:15;;;;;;;8.13;3.35;;;;;;;25.99;41.01;100042.03;7578401;33;40075;-84
2023/09/16 14:38:31;;;;;;;9.07;3.30;;;;;;;26.06;41.17;100036.63;7579684;33;37987;-84
2023/09/16 14:42:47;;;;;;;5.65;2.60;;;;;;;26.06;41.39;100047.78;7579744;33;37632;-83
2023/09/16 14:47:04;;;;;;;5.50;2.65;;;;;;;25.96;41.68;100042.81;7579356;33;39507;-83
2023/09/16 14:51:21;;;;;;;4.70;2.87;;;;;;;26.02;41.47;100044.09;7579427;33;39874;-84
2023/09/16 14:55:38;;;;;;;5.43;2.45;;;;;;;26.16;41.07;100040.75;7579285;33;38699;-82
2023/09/16 14:59:54;;;;;;;4.68;3.00;;;;;;;26.06;41.40;100042.22;7579398;33;37330;-82
2023/09/16 15:04:10;;;;;;;5.12;2.83;;;;;;;26.20;41.30;100042.44;7579005;33;40055;-81
2023/09/16 15:08:27;;;;;;;5.32;2.95;;;;;;;26.02;41.94;100044.91;7578913;33;40120;-81
2023/09/16 15:12:43;;;;;;;5.10;2.75;;;;;;;25.92;42.46;100041.88;7579030;33;37827;-82
2023/09/16 15:17:00;;;;;;;4.12;2.50;;;;;;;25.78;43.21;100032.06;7579013;33;37681;-82
2023/09/16 15:21:16;;;;;;;4.85;2.53;;;;;;;25.63;43.53;100041.31;7578814;33;39440;-82
2023/09/16 15:25:33;;;;;;;7.20;3.60;;;;;;;25.78;43.22;100039.63;7578341;33;40858;-83
2023/09/16 15:29:53;;;;;;;5.12;3.00;;;;;;;25.75;43.49;100049.56;7578328;33;38113;-82
2023/09/16 15:34:09;;;;;;;5.40;2.80;;;;;;;25.60;43.39;100037.28;7578835;33;37070;-79
2023/09/16 15:38:26;;;;;;;5.55;2.83;;;;;;;25.52;44.11;100034.72;7578075;33;39151;-79
2023/09/16 15:42:45;;;;;;;3.65;2.45;;;;;;;25.44;44.26;100030.97;7578269;33;39951;-80
2023/09/16 15:47:02;;;;;;;4.07;2.87;;;;;;;25.35;44.12;100028.38;7581681;33;38624;-82
2023/09/16 15:51:18;;;;;;;8.05;4.12;;;;;;;25.45;43.71;100035.38;7581692;33;37178;-80
2023/09/16 15:55:37;;;;;;;7.53;4.43;;;;;;;25.38;44.04;100032.44;7581682;33;40102;-81
2023/09/16 15:59:53;;;;;;;11.68;4.00;;;;;;;25.46;43.71;100032.22;7568583;33;40031;-80
2023/09/16 16:04:10;;;;;;;5.55;2.90;;;;;;;25.36;44.09;100027.22;7581274;33;37867;-81
2023/09/16 16:08:26;;;;;;;7.68;2.70;;;;;;;25.31;44.08;100019.16;7581556;33;37869;-83
2023/09/16 16:12:46;;;;;;;4.45;2.37;;;;;;;25.42;43.74;100025.78;7581426;33;39340;-82
2023/09/16 16:17:04;;;;;;;6.15;3.12;;;;;;;25.29;44.09;100021.50;7580882;33;41070;-81
2023/09/16 16:21:38;;;;;;;5.93;3.20;;;;;;;25.28;44.01;100025.44;7580898;33;39168;-82
2023/09/16 16:25:55;;;;;;;5.72;3.08;;;;;;;25.29;44.09;100018.72;7581221;33;38068;-82
2023/09/16 16:30:12;;;;;;;4.93;2.87;;;;;;;25.38;43.77;100022.09;7581390;33;39359;-82
2023/09/16 16:34:28;;;;;;;3.28;2.40;;;;;;;25.16;44.67;100011.59;7580290;33;39986;-74
2023/09/16 16:38:45;;;;;;;7.85;2.87;;;;;;;25.16;45.00;100011.59;7580696;33;38933;-85
2023/09/16 16:43:07;;;;;;;9.05;5.37;;;;;;;25.30;44.30;100018.34;7581177;33;37633;-85
2023/09/16 16:47:25;;;;;;;13.38;8.07;;;;;;;25.41;43.80;100012.19;7580937;33;40140;-85
2023/09/16 16:51:41;;;;;;;11.40;6.53;;;;;;;25.25;44.09;100015.84;7579648;33;39895;-85
2023/09/16 16:55:58;;;;;;;14.73;6.03;;;;;;;25.23;44.04;100004.22;7563619;32;38599;-84
2023/09/16 17:00:14;;;;;;;10.93;3.70;;;;;;;24.86;44.99;100006.56;7558324;33;37229;-82
2023/09/16 17:04:30;;;;;;;6.82;2.62;;;;;;;24.49;46.01;100002.13;7580615;33;39619;-81
2023/09/16 17:08:47;;;;;;;8.23;3.95;;;;;;;24.78;45.13;100002.00;7580532;33;40101;-84
2023/09/16 17:13:05;;;;;;;6.97;3.70;;;;;;;24.84;44.96;99998.56;7566627;33;38806;-84
2023/09/16 17:17:22;;;;;;;9.68;4.20;;;;;;;24.70;45.61;99990.69;7580689;33;37156;-83
2023/09/16 17:21:40;;;;;;;11.65;5.30;;;;;;;24.73;45.63;99989.97;7580649;33;39186;-83
2023/09/16 17:25:56;;;;;;;12.80;6.45;;;;;;;24.67;45.85;99996.97;7579400;33;39968;-84
2023/09/16 17:30:12;;;;;;;11.15;4.68;;;;;;;24.64;46.05;99997.69;7579610;33;38620;-85
2023/09/16 17:34:29;;;;;;;15.07;4.10;;;;;;;24.43;46.97;99997.97;7579061;33;37114;-83
2023/09/16 17:38:49;;;;;;;12.65;5.50;;;;;;;24.48;46.93;100008.84;7580228;33;39377;-84
2023/09/16 17:43:05;;;;;;;21.27;12.52;;;;;;;24.45;47.03;100012.34;7577968;33;39780;-80
2023/09/16 17:47:22;;;;;;;15.77;7.12;;;;;;;24.34;47.28;100016.84;7578897;33;38015;-80
2023/09/16 17:51:39;;;;;;;11.93;5.32;;;;;;;24.30;47.41;100022.34;7579189;33;37355;-80
2023/09/16 17:55:57;;;;;;;8.48;3.65;;;;;;;24.41;47.08;100030.16;7577634;33;40085;-80
2023/09/16 18:00:14;;;;;;;6.80;3.47;;;;;;;24.33;47.36;100031.94;7576050;33;40743;-82
2023/09/16 18:04:33;;;;;;;7.68;4.10;;;;;;;24.39;47.20;100030.53;7578666;33;38834;-82
2023/09/16 18:08:52;;;;;;;8.05;3.92;;;;;;;24.24;47.75;100022.97;7578821;33;37752;-85
2023/09/16 18:13:12;;;;;;;9.05;4.93;;;;;;;24.27;47.61;100030.59;7578896;33;40058;-82
2023/09/16 18:17:32;;;;;;;8.07;3.50;;;;;;;24.06;48.39;100030.84;7579000;33;39828;-83
2023/09/16 18:22:02;;;;;;;10.50;3.37;;;;;;;23.85;48.96;100034.66;7577431;33;38051;-85
2023/09/16 18:26:18;;;;;;;8.50;3.42;;;;;;;24.03;48.37;100040.72;7578993;33;37162;-82
2023/09/16 18:30:35;;;;;;;6.10;3.25;;;;;;;24.03;48.34;100039.94;7578649;33;40017;-81
2023/09/16 18:34:51;;;;;;;6.00;3.00;;;;;;;23.91;48.85;100047.16;7579400;33;40115;-80
2023/09/16 18:39:07;;;;;;;9.85;3.92;;;;;;;23.69;49.41;100042.12;7578078;33;38750;-79
2023/09/16 18:43:24;;;;;;;9.40;3.60;;;;;;;23.59;49.44;100043.44;7576817;32;36764;-81
2023/09/16 18:47:41;;;;;;;7.32;3.90;;;;;;;23.48;49.59;100048.72;7580253;32;39074;-79
2023/09/16 18:51:58;;;;;;;10.45;4.65;;;;;;;23.30;50.08;100052.94;7577314;33;40604;-80
2023/09/16 18:56:17;;;;;;;6.68;3.42;;;;;;;23.08;50.81;100052.28;7577381;33;36898;-80
2023/09/16 19:00:33;;;;;;;6.72;3.87;;;;;;;23.36;49.93;100052.34;7578304;33;37892;-80
2023/09/16 19:04:51;;;;;;;5.65;3.30;;;;;;;23.38;49.88;100049.19;7578185;33;39402;-81
2023/09/16 19:09:08;;;;;;;5.45;3.10;;;;;;;23.19;50.40;100047.84;7578238;33;40604;-81
2023/09/16 19:13:25;;;;;;;5.05;3.08;;;;;;;22.99;50.91;100044.03;7578278;33;38795;-81
2023/09/16 19:17:41;;;;;;;7.28;3.50;;;;;;;22.81;51.52;100042.66;7578127;33;37358;-80
2023/09/16 19:21:58;;;;;;;6.20;3.42;;;;;;;22.58;52.10;100048.69;7581328;33;39403;-79
2023/09/16 19:26:14;;;;;;;7.20;3.40;;;;;;;22.67;51.61;100054.13;7580672;33;39904;-80
2023/09/16 19:30:31;;;;;;;6.95;3.75;;;;;;;22.53;52.05;100064.78;7581275;33;38071;-79
2023/09/16 19:34:50;;;;;;;10.55;4.22;;;;;;;22.34;52.66;100068.91;7580704;33;36665;-79
2023/09/16 19:39:07;;;;;;;7.10;5.30;;;;;;;22.30;52.76;100073.53;7580833;33;39931;-78
2023/09/16 19:43:23;;;;;;;8.82;4.43;;;;;;;22.28;52.84;100075.84;7580457;33;40750;-78
2023/09/16 19:47:41;;;;;;;8.88;4.28;;;;;;;22.13;53.32;100075.31;7579754;33;38620;-79
2023/09/16 19:51:58;;;;;;;9.13;4.60;;;;;;;22.29;52.67;100077.47;7579845;33;35593;-78
2023/09/16 19:56:20;;;;;;;8.57;4.20;;;;;;;22.02;53.78;100082.44;7578921;33;37925;-78
2023/09/16 20:00:39;;;;;;;7.35;4.00;;;;;;;21.96;53.97;100089.38;7570700;33;276878;-78